Time;durP1;ratioP1;P1;durP2;ratioP2;P2;SDS_P1;SDS_P2;PMS_P1;PMS_P2;Temp;Humidity;BMP_temperature;BMP_pressure;BME280_temperature;BME280_humidity;BME280_pressure;Samples;Min_cycle;Max_cycle;Signal;HPM_P1;HPM_P2
2023/04/23 00:00:05;;;;;;;72.63;41.50;;;;;;;7.75;100.00;100640.00;5233603;28;20041;-67
2023/04/23 00:02:38;;;;;;;68.05;42.35;;;;;;;7.65;100.00;100634.44;5234340;28;20126;-67
2023/04/23 00:05:11;;;;;;;71.68;42.50;;;;;;;7.63;100.00;100636.34;5232241;28;20533;-67
2023/04/23 00:07:43;;;;;;;67.50;40.42;;;;;;;7.70;100.00;100632.31;5242476;28;20028;-67
2023/04/23 00:10:15;;;;;;;66.60;40.47;;;;;;;7.63;100.00;100628.38;5230002;28;20033;-66
2023/04/23 00:12:46;;;;;;;65.70;40.80;;;;;;;7.63;100.00;100629.25;5227031;28;20104;-66
2023/04/23 00:15:20;;;;;;;65.53;40.22;;;;;;;7.58;100.00;100626.03;5230198;28;20349;-67
2023/04/23 00:17:52;;;;;;;59.38;38.20;;;;;;;7.58;100.00;100626.03;5224194;28;20096;-67
2023/04/23 00:20:23;;;;;;;64.40;38.30;;;;;;;7.58;100.00;100618.06;5231437;28;20036;-67
2023/04/23 00:22:55;;;;;;;67.30;39.10;;;;;;;7.54;100.00;100619.25;5228521;28;20033;-66
2023/04/23 00:25:26;;;;;;;62.15;38.88;;;;;;;7.52;100.00;100620.31;5228705;28;20045;-66
2023/04/23 00:27:58;;;;;;;64.93;39.10;;;;;;;7.55;100.00;100620.94;5226694;28;20033;-67
2023/04/23 00:30:29;;;;;;;62.58;38.95;;;;;;;7.50;100.00;100622.19;5226528;28;20052;-66
2023/04/23 00:33:01;;;;;;;58.03;36.95;;;;;;;7.52;100.00;100620.31;5228745;28;20352;-67
2023/04/23 00:35:32;;;;;;;59.60;38.03;;;;;;;7.52;100.00;100623.81;5223487;28;20018;-67
2023/04/23 00:38:04;;;;;;;60.30;37.67;;;;;;;7.43;100.00;100621.75;5236067;28;20029;-67
2023/04/23 00:40:36;;;;;;;58.08;37.90;;;;;;;7.39;100.00;100615.81;5234519;28;20017;-66
2023/04/23 00:43:08;;;;;;;64.65;37.72;;;;;;;7.41;100.00;100611.25;5234226;28;20118;-67
2023/04/23 00:45:40;;;;;;;61.35;36.17;;;;;;;7.37;100.00;100606.25;5231724;28;20387;-66
2023/04/23 00:48:12;;;;;;;54.90;35.33;;;;;;;7.41;100.00;100602.44;5233006;28;20029;-67
2023/04/23 00:50:43;;;;;;;57.60;35.95;;;;;;;7.36;100.00;100601.88;5224093;28;20026;-67
2023/04/23 00:53:15;;;;;;;57.28;36.13;;;;;;;7.47;100.00;100602.03;5233296;28;20498;-67
2023/04/23 00:55:46;;;;;;;58.20;36.70;;;;;;;7.40;100.00;100592.75;5230367;28;20022;-67
2023/04/23 00:58:18;;;;;;;55.55;36.30;;;;;;;7.46;100.00;100589.72;5226963;28;20022;-67
2023/04/23 01:00:50;;;;;;;56.92;35.00;;;;;;;7.41;100.00;100597.97;5246267;28;20222;-67
2023/04/23 01:03:24;;;;;;;57.75;36.47;;;;;;;7.49;100.00;100588.66;5232307;28;20037;-66
2023/04/23 01:05:55;;;;;;;57.90;36.35;;;;;;;7.44;100.00;100584.50;5233284;28;20032;-66
2023/04/23 01:08:27;;;;;;;56.08;36.83;;;;;;;7.49;100.00;100588.66;5242710;28;20029;-67
2023/04/23 01:10:59;;;;;;;60.35;37.22;;;;;;;7.46;100.00;100587.91;5244254;28;20029;-66
2023/04/23 01:13:31;;;;;;;62.35;38.28;;;;;;;7.47;100.00;100580.78;5224737;28;20025;-66
2023/04/23 01:16:02;;;;;;;59.05;38.10;;;;;;;7.54;100.00;100579.41;5233102;28;20685;-68
2023/04/23 01:18:34;;;;;;;59.22;36.25;;;;;;;7.45;100.00;100580.88;5230523;28;20484;-67
2023/04/23 01:21:06;;;;;;;54.65;35.30;;;;;;;7.44;100.00;100568.59;5233373;28;20028;-66
2023/04/23 01:23:37;;;;;;;58.97;37.40;;;;;;;7.45;100.00;100570.25;5230745;28;20026;-66
2023/04/23 01:26:09;;;;;;;60.60;37.25;;;;;;;7.44;100.00;100565.91;5225269;28;20026;-67
2023/04/23 01:28:44;;;;;;;59.80;37.47;;;;;;;7.44;100.00;100579.19;5235355;28;20025;-67
2023/04/23 01:31:16;;;;;;;61.25;37.00;;;;;;;7.47;100.00;100570.16;5231431;28;20026;-67
2023/04/23 01:33:49;;;;;;;58.70;35.92;;;;;;;7.53;100.00;100568.91;5233189;28;20535;-66
2023/04/23 01:36:22;;;;;;;55.10;35.90;;;;;;;7.52;100.00;100561.91;5226838;28;20194;-67
2023/04/23 01:38:54;;;;;;;55.28;35.35;;;;;;;7.50;100.00;100567.31;5228946;28;20112;-66
2023/04/23 01:41:26;;;;;;;56.90;36.10;;;;;;;7.53;100.00;100567.09;5240484;28;20167;-66
2023/04/23 01:43:58;;;;;;;59.10;36.13;;;;;;;7.55;100.00;100567.81;5238733;28;20088;-66
2023/04/23 01:46:30;;;;;;;58.95;35.92;;;;;;;7.55;100.00;100561.69;5233100;28;20408;-66
2023/04/23 01:49:02;;;;;;;58.40;35.55;;;;;;;7.63;100.00;100575.28;5226433;28;20029;-67
2023/04/23 01:51:34;;;;;;;52.13;34.30;;;;;;;7.60;100.00;100571.03;5234495;28;20122;-66
2023/04/23 01:54:05;;;;;;;55.58;36.03;;;;;;;7.60;100.00;100568.38;5240426;28;20491;-66
2023/04/23 01:56:37;;;;;;;58.00;35.20;;;;;;;7.60;100.00;100565.72;5232783;28;20065;-67
2023/04/23 01:59:08;;;;;;;54.38;34.80;;;;;;;7.63;100.00;100569.97;5236686;28;20026;-67
2023/04/23 02:01:44;;;;;;;57.47;35.55;;;;;;;7.63;100.00;100570.81;5234175;28;20034;-66
2023/04/23 02:04:18;;;;;;;50.15;33.10;;;;;;;7.60;100.00;100571.03;5234309;28;20535;-67
2023/04/23 02:06:50;;;;;;;48.20;33.00;;;;;;;7.59;100.00;100576.44;5229266;28;20034;-66
2023/04/23 02:09:21;;;;;;;48.35;32.33;;;;;;;7.57;100.00;100573.03;5234774;28;20502;-66
2023/04/23 02:11:52;;;;;;;45.92;31.75;;;;;;;7.58;100.00;100566.78;5224714;28;20041;-67
2023/04/23 02:14:24;;;;;;;46.05;30.88;;;;;;;7.59;100.00;100565.81;5234373;28;20047;-68
2023/04/23 02:16:56;;;;;;;44.78;30.50;;;;;;;7.61;100.00;100558.59;5234649;28;20091;-66
2023/04/23 02:19:30;;;;;;;45.92;30.88;;;;;;;7.59;100.00;100552.53;5226210;28;20116;-66
2023/04/23 02:22:02;;;;;;;43.70;30.95;;;;;;;7.61;100.00;100555.94;5236223;28;20024;-66
2023/04/23 02:24:33;;;;;;;45.03;30.05;;;;;;;7.61;100.00;100554.16;5234826;28;20029;-67
2023/04/23 02:27:04;;;;;;;48.15;32.15;;;;;;;7.65;100.00;100549.47;5226730;28;20044;-66
2023/04/23 02:29:36;;;;;;;43.42;30.90;;;;;;;7.63;100.00;100554.91;5233646;28;20033;-67
2023/04/23 02:32:08;;;;;;;44.70;30.65;;;;;;;7.73;100.00;100560.44;5233620;28;20341;-66
2023/04/23 02:34:39;;;;;;;49.47;31.05;;;;;;;7.71;100.00;100559.69;5233379;28;20041;-67
2023/04/23 02:37:11;;;;;;;46.85;30.15;;;;;;;7.79;100.00;100559.16;5236963;28;20292;-66
2023/04/23 02:39:42;;;;;;;41.45;29.05;;;;;;;7.73;100.00;100555.09;5229612;28;20095;-67
2023/04/23 02:42:13;;;;;;;42.45;28.42;;;;;;;7.68;100.00;100559.03;5231019;28;20074;-66
2023/04/23 02:44:45;;;;;;;42.42;30.25;;;;;;;7.75;100.00;100550.53;5229386;28;20040;-66
2023/04/23 02:47:16;;;;;;;42.70;30.25;;;;;;;7.68;100.00;100545.75;5234712;28;20391;-67
2023/04/23 02:49:48;;;;;;;41.58;29.77;;;;;;;7.68;100.00;100545.75;5235834;28;20111;-66
2023/04/23 02:52:19;;;;;;;39.53;28.92;;;;;;;7.75;100.00;100542.56;5224151;28;20111;-66
2023/04/23 02:54:50;;;;;;;39.67;28.40;;;;;;;7.74;100.00;100554.13;5232097;28;20027;-66
2023/04/23 02:57:22;;;;;;;40.58;28.50;;;;;;;7.73;100.00;100543.63;5229330;28;20084;-66
2023/04/23 02:59:54;;;;;;;37.83;28.27;;;;;;;7.78;100.00;100544.16;5228513;28;20025;-66
2023/04/23 03:02:25;;;;;;;40.75;28.55;;;;;;;7.77;100.00;100543.31;5228779;28;20069;-66
2023/04/23 03:04:56;;;;;;;40.70;29.10;;;;;;;7.78;100.00;100550.31;5216712;28;20189;-66
2023/04/23 03:07:28;;;;;;;40.25;28.83;;;;;;;7.82;100.00;100540.31;5223910;28;20056;-67
2023/04/23 03:09:59;;;;;;;40.08;29.45;;;;;;;7.83;100.00;100545.53;5239191;28;20024;-66
2023/04/23 03:12:31;;;;;;;43.70;28.80;;;;;;;7.83;100.00;100542.88;5234826;28;20475;-66
2023/04/23 03:15:02;;;;;;;39.88;28.27;;;;;;;7.83;100.00;100534.06;5230777;28;20056;-66
2023/04/23 03:17:34;;;;;;;40.92;27.85;;;;;;;7.82;100.00;100535.00;5230836;28;20037;-66
2023/04/23 03:20:07;;;;;;;37.90;28.38;;;;;;;7.81;100.00;100533.34;5246027;28;20521;-66
2023/04/23 03:22:39;;;;;;;37.20;27.48;;;;;;;7.80;100.00;100519.19;5229673;28;20029;-67
2023/04/23 03:25:10;;;;;;;38.05;27.38;;;;;;;7.78;100.00;100529.06;5234096;28;20464;-66
2023/04/23 03:27:43;;;;;;;36.85;27.15;;;;;;;7.83;100.00;100526.09;5232084;28;20219;-66
2023/04/23 03:30:14;;;;;;;41.13;28.17;;;;;;;7.90;100.00;100530.03;5227501;28;20065;-67
2023/04/23 03:32:47;;;;;;;38.88;28.08;;;;;;;7.91;100.00;100531.72;5225040;28;20105;-67
2023/04/23 03:35:18;;;;;;;39.72;28.25;;;;;;;7.97;100.00;100530.44;5222679;28;20040;-67
2023/04/23 03:37:50;;;;;;;38.70;28.08;;;;;;;7.97;100.00;100525.13;5223549;28;20022;-67
2023/04/23 03:40:21;;;;;;;39.60;28.10;;;;;;;7.94;100.00;100525.31;5230583;28;20025;-66
2023/04/23 03:42:53;;;;;;;40.38;28.48;;;;;;;8.01;100.00;100522.13;5233251;28;20029;-66
2023/04/23 03:45:24;;;;;;;39.65;28.27;;;;;;;8.01;100.00;100524.78;5234501;28;20037;-67
2023/04/23 03:47:56;;;;;;;38.17;26.95;;;;;;;8.01;100.00;100521.28;5233206;28;20029;-66
2023/04/23 03:50:28;;;;;;;37.40;28.13;;;;;;;8.02;100.00;100526.50;5233930;28;20116;-66
2023/04/23 03:52:59;;;;;;;37.70;27.77;;;;;;;8.04;100.00;100524.56;5232512;28;20147;-67
2023/04/23 03:55:31;;;;;;;33.67;25.92;;;;;;;8.04;100.00;100523.75;5226981;28;20025;-67
2023/04/23 03:58:02;;;;;;;36.80;27.90;;;;;;;8.07;100.00;100523.50;5232185;28;20033;-67
2023/04/23 04:00:34;;;;;;;37.13;27.00;;;;;;;8.11;100.00;100532.09;5233247;28;20403;-66
2023/04/23 04:03:07;;;;;;;36.75;27.45;;;;;;;8.07;100.00;100531.47;5235025;28;20050;-67
2023/04/23 04:05:39;;;;;;;35.17;26.53;;;;;;;8.08;100.00;100527.88;5229898;28;20275;-67
2023/04/23 04:08:11;;;;;;;36.75;26.95;;;;;;;8.10;100.00;100520.63;5234432;28;20826;-67
2023/04/23 04:10:43;;;;;;;37.83;26.65;;;;;;;8.09;100.00;100529.56;5232916;28;20112;-67
2023/04/23 04:13:15;;;;;;;36.10;26.48;;;;;;;8.13;100.00;100530.19;5228656;28;20033;-67
2023/04/23 04:15:46;;;;;;;34.63;25.88;;;;;;;8.10;100.00;100533.09;5233212;28;20025;-67
2023/04/23 04:18:18;;;;;;;36.83;25.90;;;;;;;8.11;100.00;100534.75;5235499;28;20392;-67
2023/04/23 04:20:51;;;;;;;34.47;24.77;;;;;;;8.04;100.00;100537.03;5230413;28;20494;-66
2023/04/23 04:23:22;;;;;;;34.22;25.48;;;;;;;7.98;100.00;100535.66;5224334;28;20038;-66
2023/04/23 04:25:55;;;;;;;32.35;24.52;;;;;;;8.03;100.00;100536.19;5229614;28;20078;-66
2023/04/23 04:28:26;;;;;;;33.88;24.98;;;;;;;7.97;100.00;100541.91;5231146;28;20163;-66
2023/04/23 04:30:59;;;;;;;34.97;25.30;;;;;;;7.97;100.00;100538.41;5220672;28;20052;-67
2023/04/23 04:33:31;;;;;;;34.50;24.73;;;;;;;7.96;100.00;100537.56;5227169;28;20140;-67
2023/04/23 04:36:03;;;;;;;33.35;25.38;;;;;;;7.93;100.00;100535.13;5233320;28;20400;-66
2023/04/23 04:38:36;;;;;;;31.95;24.67;;;;;;;7.89;100.00;100530.97;5237239;28;20075;-67
2023/04/23 04:41:08;;;;;;;35.33;25.75;;;;;;;7.92;100.00;100529.91;5224701;28;20033;-67
2023/04/23 04:43:40;;;;;;;33.03;24.60;;;;;;;7.97;100.00;100533.09;5239095;28;20051;-67
2023/04/23 04:46:11;;;;;;;31.35;23.13;;;;;;;7.92;100.00;100535.22;5240188;28;20018;-66
2023/04/23 04:48:42;;;;;;;32.95;23.50;;;;;;;8.05;100.00;100534.25;5234993;28;20098;-66
2023/04/23 04:51:14;;;;;;;34.72;24.95;;;;;;;7.94;100.00;100530.63;5235913;28;20026;-67
2023/04/23 04:53:46;;;;;;;32.47;23.95;;;;;;;7.95;100.00;100529.69;5231575;28;20033;-66
2023/04/23 04:56:17;;;;;;;33.03;24.42;;;;;;;7.95;100.00;100532.34;5239401;28;20502;-66
2023/04/23 04:58:49;;;;;;;33.10;23.63;;;;;;;7.90;100.00;100530.03;5232180;28;20383;-66
2023/04/23 05:01:23;;;;;;;32.53;23.02;;;;;;;7.87;100.00;100546.19;5229457;28;20029;-66
2023/04/23 05:03:54;;;;;;;;;;;;;;;7.94;100.00;100541.25;5232576;28;20043;-67
2023/04/23 05:06:27;;;;;;;30.38;22.73;;;;;;;7.82;100.00;100538.53;5229852;28;19921;-67
2023/04/23 05:08:58;;;;;;;33.88;24.25;;;;;;;7.83;100.00;100542.03;5235445;28;20021;-67
2023/04/23 05:11:30;;;;;;;31.13;23.70;;;;;;;7.89;100.00;100544.25;5234333;28;20029;-66
2023/04/23 05:14:03;;;;;;;34.17;24.80;;;;;;;7.95;100.00;100540.31;5237299;28;20071;-67
2023/04/23 05:16:34;;;;;;;33.80;24.83;;;;;;;7.97;100.00;100536.59;5234186;28;20026;-68
2023/04/23 05:19:07;;;;;;;36.63;24.90;;;;;;;8.00;100.00;100536.38;5232843;28;20025;-67
2023/04/23 05:21:38;;;;;;;35.13;26.08;;;;;;;8.11;100.00;100540.06;5231863;28;20037;-67
2023/04/23 05:24:10;;;;;;;35.80;26.10;;;;;;;8.15;100.00;100541.56;5242158;28;20484;-66
2023/04/23 05:26:41;;;;;;;37.85;26.30;;;;;;;8.13;100.00;100541.69;5234566;28;20030;-66
2023/04/23 05:29:16;;;;;;;38.13;27.13;;;;;;;8.19;100.00;100546.56;5227600;28;20025;-67
2023/04/23 05:31:48;;;;;;;37.40;26.35;;;;;;;8.23;100.00;100541.88;5232211;28;20044;-67
2023/04/23 05:34:19;;;;;;;36.33;25.80;;;;;;;8.31;100.00;100547.50;5232689;28;20037;-67
2023/04/23 05:36:50;;;;;;;39.75;27.08;;;;;;;8.33;100.00;100555.34;5235531;28;20020;-66
2023/04/23 05:39:22;;;;;;;41.70;27.30;;;;;;;8.38;100.00;100548.75;5233513;28;20151;-66
2023/04/23 05:41:53;;;;;;;35.65;25.33;;;;;;;8.40;100.00;100548.66;5234725;28;20448;-66
2023/04/23 05:44:24;;;;;;;36.05;25.70;;;;;;;8.49;100.00;100542.66;5232818;28;20075;-66
2023/04/23 05:46:56;;;;;;;37.13;26.95;;;;;;;8.51;100.00;100547.88;5234464;28;20030;-67
2023/04/23 05:49:27;;;;;;;35.78;25.48;;;;;;;8.53;100.00;100541.47;5226568;28;20075;-66
2023/04/23 05:51:59;;;;;;;32.47;23.88;;;;;;;8.56;100.00;100543.94;5230627;28;20099;-66
2023/04/23 05:54:31;;;;;;;31.25;24.27;;;;;;;8.59;100.00;100537.53;5231109;28;20032;-66
2023/04/23 05:57:03;;;;;;;34.38;24.58;;;;;;;8.60;100.00;100531.25;5233887;28;20275;-66
2023/04/23 05:59:35;;;;;;;31.15;24.02;;;;;;;8.60;100.00;100537.41;5226174;28;20083;-66
2023/04/23 06:02:08;;;;;;;29.40;22.90;;;;;;;8.58;100.00;100535.84;5232014;28;20042;-67
2023/04/23 06:04:39;;;;;;;32.72;23.75;;;;;;;8.59;100.00;100532.22;5226561;28;20030;-66
2023/04/23 06:07:11;;;;;;;31.50;22.50;;;;;;;8.67;100.00;100535.19;5227453;28;20049;-66
2023/04/23 06:09:42;;;;;;;33.67;23.67;;;;;;;8.68;100.00;100528.03;5241360;28;20026;-66
2023/04/23 06:12:14;;;;;;;37.42;25.70;;;;;;;8.70;100.00;100532.28;5234994;28;20033;-67
2023/04/23 06:14:46;;;;;;;36.22;28.67;;;;;;;8.82;100.00;100533.16;5236616;28;20068;-67
2023/04/23 06:17:17;;;;;;;30.85;23.77;;;;;;;8.74;100.00;100531.06;5234910;28;20030;-67
2023/04/23 06:19:50;;;;;;;29.10;22.33;;;;;;;8.77;100.00;100524.69;5232540;28;20026;-66
2023/04/23 06:22:21;;;;;;;32.05;23.50;;;;;;;8.90;100.00;100527.28;5228691;28;20095;-67
2023/04/23 06:24:52;;;;;;;32.55;24.23;;;;;;;8.90;100.00;100520.16;5238685;28;20033;-67
2023/04/23 06:27:23;;;;;;;29.35;21.98;;;;;;;8.88;100.00;100516.78;5232343;28;20458;-67
2023/04/23 06:29:55;;;;;;;28.80;21.98;;;;;;;8.88;100.00;100507.91;5236415;28;20502;-66
2023/04/23 06:32:26;;;;;;;33.58;23.58;;;;;;;8.93;100.00;100506.63;5234145;28;20393;-67
2023/04/23 06:34:58;;;;;;;28.27;22.30;;;;;;;8.94;100.00;100505.66;5224579;28;20013;-67
2023/04/23 06:37:32;;;;;;;30.00;22.63;;;;;;;9.02;100.00;100505.09;5238205;28;20048;-66
2023/04/23 06:40:03;;;;;;;30.73;21.85;;;;;;;9.04;100.00;100503.16;5235353;28;20036;-66
2023/04/23 06:42:35;;;;;;;30.38;20.80;;;;;;;9.15;100.00;100491.72;5232834;28;20025;-66
2023/04/23 06:45:06;;;;;;;29.58;19.90;;;;;;;9.14;100.00;100497.97;5234792;28;20029;-66
2023/04/23 06:47:38;;;;;;;26.77;19.38;;;;;;;9.33;100.00;100505.41;5233984;28;20034;-66
2023/04/23 06:50:09;;;;;;;25.17;19.77;;;;;;;9.41;100.00;100506.53;5237920;28;20454;-67
2023/04/23 06:52:42;;;;;;;23.23;18.13;;;;;;;9.45;100.00;100503.63;5232136;28;20423;-66
2023/04/23 06:55:13;;;;;;;24.42;18.45;;;;;;;9.43;100.00;100498.41;5232458;28;20113;-66
2023/04/23 06:57:45;;;;;;;24.77;18.50;;;;;;;9.65;100.00;100502.94;5230295;28;20025;-67
2023/04/23 07:00:16;;;;;;;24.02;18.15;;;;;;;9.56;100.00;100488.50;5230084;28;20032;-67
2023/04/23 07:02:48;;;;;;;27.77;17.80;;;;;;;9.64;100.00;100497.72;5223785;28;20325;-67
2023/04/23 07:05:19;;;;;;;22.90;17.15;;;;;;;9.74;100.00;100493.34;5229594;28;20037;-69
2023/04/23 07:07:51;;;;;;;24.98;17.30;;;;;;;9.82;100.00;100493.63;5227951;28;20064;-67
2023/04/23 07:10:24;;;;;;;22.58;15.68;;;;;;;9.88;100.00;100492.28;5229079;28;20045;-67
2023/04/23 07:12:55;;;;;;;20.92;14.23;;;;;;;9.99;100.00;100487.78;5234659;28;20391;-67
2023/04/23 07:15:26;;;;;;;17.50;13.10;;;;;;;10.07;100.00;100495.16;5230216;28;20037;-67
2023/04/23 07:17:58;;;;;;;18.92;13.32;;;;;;;10.07;100.00;100492.50;5231701;28;20037;-66
2023/04/23 07:20:29;;;;;;;19.67;13.07;;;;;;;10.20;100.00;100484.34;5230845;28;20033;-67
2023/04/23 07:23:02;;;;;;;17.67;11.65;;;;;;;10.26;100.00;100486.53;5227065;28;20025;-66
2023/04/23 07:25:34;;;;;;;18.13;11.80;;;;;;;10.32;100.00;100480.72;5233029;28;20087;-66
2023/04/23 07:28:05;;;;;;;18.45;12.27;;;;;;;10.43;100.00;100484.34;5232019;28;20467;-67
2023/04/23 07:30:36;;;;;;;14.68;10.68;;;;;;;10.45;100.00;100485.06;5227778;28;20383;-67
2023/04/23 07:33:08;;;;;;;18.67;10.57;;;;;;;10.56;100.00;100483.19;5224389;28;20867;-66
2023/04/23 07:35:39;;;;;;;18.80;10.05;;;;;;;10.66;100.00;100483.31;5231837;28;20484;-67
2023/04/23 07:38:11;;;;;;;17.52;10.20;;;;;;;10.72;100.00;100472.13;5232340;28;20617;-66
2023/04/23 07:40:42;;;;;;;17.10;9.30;;;;;;;10.95;100.00;100459.53;5228811;28;20040;-67
2023/04/23 07:43:15;;;;;;;13.65;8.50;;;;;;;10.98;100.00;100466.41;5232051;28;20483;-67
2023/04/23 07:45:46;;;;;;;11.63;7.57;;;;;;;10.94;100.00;100473.00;5232954;28;20484;-66
2023/04/23 07:48:18;;;;;;;14.38;8.60;;;;;;;11.07;100.00;100462.97;5230541;28;20095;-67
2023/04/23 07:50:50;;;;;;;12.85;7.40;;;;;;;11.11;100.00;100467.06;5233151;28;20033;-66
2023/04/23 07:53:21;;;;;;;13.15;7.30;;;;;;;11.28;100.00;100462.13;5230571;28;20116;-66
2023/04/23 07:55:55;;;;;;;12.00;7.13;;;;;;;11.19;100.00;100464.59;5230554;28;20033;-67
2023/04/23 07:58:26;;;;;;;15.63;7.30;;;;;;;11.25;100.00;100459.72;5230818;28;20113;-66
2023/04/23 08:00:58;;;;;;;16.98;7.68;;;;;;;11.34;100.00;100461.59;5227184;28;20458;-67
2023/04/23 08:03:29;;;;;;;13.60;6.10;;;;;;;11.74;100.00;100456.31;5232824;28;20045;-67
2023/04/23 08:06:03;;;;;;;13.80;6.50;;;;;;;11.56;100.00;100450.75;5227946;28;20551;-67
2023/04/23 08:08:34;;;;;;;17.40;6.70;;;;;;;11.65;100.00;100450.91;5234948;28;20029;-67
2023/04/23 08:11:06;;;;;;;13.13;6.53;;;;;;;11.66;100.00;100448.13;5224316;28;20801;-67
2023/04/23 08:13:37;;;;;;;13.90;6.00;;;;;;;11.75;100.00;100447.31;5232906;28;20456;-67
2023/04/23 08:16:09;;;;;;;13.43;5.82;;;;;;;11.77;100.00;100447.16;5230148;28;20033;-66
2023/04/23 08:18:40;;;;;;;11.30;5.50;;;;;;;11.84;100.00;100445.66;5228647;28;20087;-64
2023/04/23 08:21:12;;;;;;;14.27;5.95;;;;;;;11.99;100.00;100439.97;5230773;28;20058;-64
2023/04/23 08:23:44;;;;;;;9.98;5.20;;;;;;;12.08;100.00;100436.44;5228529;28;20108;-64
2023/04/23 08:26:15;;;;;;;12.75;5.38;;;;;;;12.29;100.00;100429.19;5220785;28;20036;-64
2023/04/23 08:28:47;;;;;;;11.85;4.72;;;;;;;12.27;100.00;100412.44;5238185;28;20024;-65
2023/04/23 08:31:18;;;;;;;11.30;4.60;;;;;;;12.40;100.00;100416.66;5235105;28;20033;-64
2023/04/23 08:33:50;;;;;;;9.93;4.50;;;;;;;12.41;100.00;100423.72;5226611;28;20498;-64
2023/04/23 08:36:21;;;;;;;10.52;4.82;;;;;;;12.52;100.00;100426.22;5231374;28;20101;-65
2023/04/23 08:38:53;;;;;;;11.23;4.78;;;;;;;12.70;100.00;100427.22;5229147;28;20580;-65
2023/04/23 08:41:32;;;;;;;10.55;4.82;;;;;;;13.06;100.00;100426.59;5235480;28;20037;-65
2023/04/23 08:44:18;;;;;;;10.02;4.38;;;;;;;13.17;100.00;100417.56;5230924;28;20025;-64
2023/04/23 08:46:52;;;;;;;9.18;4.65;;;;;;;13.14;100.00;100416.03;5233163;28;20042;-65
2023/04/23 08:49:28;;;;;;;10.43;4.30;;;;;;;13.13;100.00;100417.88;5231542;28;20032;-65
2023/04/23 08:52:18;;;;;;;10.40;3.60;;;;;;;13.52;100.00;100411.59;5229172;28;20479;-65
2023/04/23 08:54:56;;;;;;;7.35;2.63;;;;;;;13.73;100.00;100417.56;5231562;28;20021;-65
2023/04/23 08:57:28;;;;;;;6.15;2.70;;;;;;;13.72;100.00;100402.44;5233352;28;20616;-65
2023/04/23 09:00:04;;;;;;;11.35;3.35;;;;;;;13.97;100.00;100412.63;5227221;28;20021;-65
2023/04/23 09:02:40;;;;;;;10.93;3.05;;;;;;;14.06;100.00;100406.38;5224934;28;20046;-65
2023/04/23 09:05:13;;;;;;;9.68;2.85;;;;;;;13.88;100.00;100407.19;5229553;28;20030;-65
2023/04/23 09:07:44;;;;;;;10.95;2.50;;;;;;;13.78;100.00;100411.72;5229351;28;20037;-65
2023/04/23 09:10:15;;;;;;;7.55;2.33;;;;;;;13.78;100.00;100405.53;5228440;28;20083;-65
2023/04/23 09:12:47;;;;;;;7.68;2.65;;;;;;;13.72;100.00;100412.31;5228280;28;20040;-65
2023/04/23 09:15:18;;;;;;;7.80;2.40;;;;;;;13.82;100.00;100412.28;5232023;28;20025;-66
2023/04/23 09:17:50;;;;;;;8.95;2.05;;;;;;;13.87;100.00;100400.13;5230222;28;20060;-65
2023/04/23 09:20:21;;;;;;;7.40;2.85;;;;;;;14.01;100.00;100405.97;5227470;28;20383;-65
2023/04/23 09:22:52;;;;;;;8.20;2.05;;;;;;;14.10;100.00;100386.28;5239397;28;21242;-65
2023/04/23 09:25:24;;;;;;;6.63;2.30;;;;;;;14.21;100.00;100391.44;5233931;28;20025;-65
2023/04/23 09:27:57;;;;;;;7.03;2.08;;;;;;;14.30;100.00;100395.03;5229591;28;20095;-66
2023/04/23 09:30:29;;;;;;;9.15;2.30;;;;;;;14.38;100.00;100386.22;5236501;28;20120;-66
2023/04/23 09:33:04;;;;;;;9.73;2.70;;;;;;;14.62;100.00;100383.78;5232532;28;20480;-66
2023/04/23 09:35:36;;;;;;;7.97;2.13;;;;;;;14.59;100.00;100378.72;5235186;28;20025;-66
2023/04/23 09:38:09;;;;;;;10.18;2.60;;;;;;;15.01;100.00;100372.66;5227369;28;20033;-65
2023/04/23 09:40:40;;;;;;;10.37;2.67;;;;;;;14.89;100.00;100366.69;5229324;28;20025;-66
2023/04/23 09:43:12;;;;;;;10.70;2.90;;;;;;;14.92;100.00;100370.94;5226636;28;20032;-66
2023/04/23 09:45:48;;;;;;;10.20;1.80;;;;;;;15.03;100.00;100367.13;5236890;28;20064;-66
2023/04/23 09:48:20;;;;;;;7.15;2.20;;;;;;;15.18;100.00;100376.28;5230797;28;20087;-66
2023/04/23 09:50:54;;;;;;;8.40;2.47;;;;;;;15.08;100.00;100373.69;5231313;28;20124;-66
2023/04/23 09:53:26;;;;;;;7.72;2.80;;;;;;;15.10;100.00;100369.00;5228156;28;20037;-66
2023/04/23 09:55:57;;;;;;;9.05;2.30;;;;;;;15.12;100.00;100370.72;5231905;28;20412;-66
2023/04/23 09:58:29;;;;;;;6.28;1.52;;;;;;;15.01;100.00;100378.00;5240312;28;20602;-66
2023/04/23 10:01:07;;;;;;;7.53;1.77;;;;;;;15.05;100.00;100370.50;5231957;28;20025;-66
2023/04/23 10:03:42;;;;;;;7.07;2.25;;;;;;;15.06;100.00;100367.66;5230964;28;20056;-66
2023/04/23 10:06:14;;;;;;;7.30;1.80;;;;;;;15.06;100.00;100364.97;5230122;28;20037;-67
2023/04/23 10:08:46;;;;;;;9.10;1.60;;;;;;;15.12;100.00;100358.13;5234199;28;20029;-66
2023/04/23 10:11:17;;;;;;;8.23;2.22;;;;;;;15.22;100.00;100360.69;5231360;28;21215;-67
2023/04/23 10:13:49;;;;;;;6.22;1.83;;;;;;;15.25;100.00;100361.22;5230075;28;20070;-67
2023/04/23 10:16:22;;;;;;;6.65;2.10;;;;;;;15.37;100.00;100356.41;5230929;28;20071;-67
2023/04/23 10:18:55;;;;;;;6.63;2.03;;;;;;;15.52;100.00;100359.31;5233102;28;20040;-66
2023/04/23 10:21:30;;;;;;;9.30;3.05;;;;;;;15.71;100.00;100349.31;5230417;28;20033;-66
2023/04/23 10:24:04;;;;;;;7.05;2.17;;;;;;;15.82;100.00;100349.88;5232358;28;20388;-66
2023/04/23 10:26:40;;;;;;;7.07;2.42;;;;;;;15.99;100.00;100347.22;5227426;28;20491;-67
2023/04/23 10:29:15;;;;;;;8.65;2.22;;;;;;;16.12;100.00;100344.91;5232849;28;20048;-66
2023/04/23 10:31:47;;;;;;;5.43;2.08;;;;;;;16.15;100.00;100341.88;5233192;28;20476;-67
2023/04/23 10:34:19;;;;;;;4.82;2.00;;;;;;;16.20;100.00;100336.84;5225344;28;20040;-67
2023/04/23 10:36:51;;;;;;;6.25;2.00;;;;;;;16.18;100.00;100329.94;5240518;28;20020;-67
2023/04/23 10:39:25;;;;;;;7.07;2.13;;;;;;;16.13;100.00;100329.56;5233741;28;20029;-67
2023/04/23 10:41:57;;;;;;;7.50;1.83;;;;;;;16.12;100.00;100333.28;5230261;28;20108;-67
2023/04/23 10:44:36;;;;;;;6.60;2.00;;;;;;;16.20;100.00;100331.47;5234324;28;20475;-67
2023/04/23 10:47:15;;;;;;;4.90;1.88;;;;;;;16.14;100.00;100325.91;5236871;28;20072;-67
2023/04/23 10:49:47;;;;;;;6.55;2.05;;;;;;;16.18;100.00;100321.84;5230526;28;20029;-67
2023/04/23 10:52:20;;;;;;;7.13;2.53;;;;;;;16.20;100.00;100317.16;5229590;28;20087;-67
2023/04/23 10:55:00;;;;;;;4.97;1.75;;;;;;;16.20;100.00;100312.63;5242543;28;20045;-67
2023/04/23 10:57:56;;;;;;;5.72;1.88;;;;;;;16.39;100.00;100308.72;5234071;28;20041;-67
2023/04/23 11:00:49;;;;;;;10.02;2.30;;;;;;;16.46;100.00;100306.22;5226647;28;20475;-67
2023/04/23 11:03:38;;;;;;;5.82;1.80;;;;;;;16.54;100.00;100303.53;5231242;28;20072;-67
2023/04/23 11:06:19;;;;;;;6.10;1.90;;;;;;;16.63;100.00;100294.41;5231128;28;20488;-67
2023/04/23 11:08:55;;;;;;;6.60;1.88;;;;;;;16.66;100.00;100301.31;5233183;28;20091;-67
2023/04/23 11:11:40;;;;;;;9.38;2.08;;;;;;;16.75;100.00;100294.06;5230422;28;20036;-67
2023/04/23 11:14:14;;;;;;;7.05;1.60;;;;;;;16.65;100.00;100288.88;5234561;28;20708;-68
2023/04/23 11:16:47;;;;;;;4.47;1.83;;;;;;;16.63;100.00;100282.81;5231141;28;20033;-67
2023/04/23 11:19:19;;;;;;;4.57;1.60;;;;;;;16.53;100.00;100282.13;5233640;28;20025;-67
2023/04/23 11:22:01;;;;;;;5.20;1.65;;;;;;;16.65;100.00;100278.09;5230858;28;20522;-67
2023/04/23 11:24:37;;;;;;;6.40;1.83;;;;;;;16.59;100.00;100273.41;5235185;28;20033;-67
2023/04/23 11:27:13;;;;;;;5.97;1.30;;;;;;;16.63;100.00;100272.88;5237700;28;20035;-67
2023/04/23 11:29:45;;;;;;;5.03;1.40;;;;;;;16.57;100.00;100265.47;5227407;28;20037;-67
2023/04/23 11:32:17;;;;;;;4.47;1.30;;;;;;;16.46;100.00;100272.06;5228845;28;20037;-67
2023/04/23 11:34:49;;;;;;;4.70;1.50;;;;;;;16.29;100.00;100267.69;5238036;28;20475;-68